Biritinga, Brazil
Current Conditions -  °F | °C
As of 12:00 PM on Saturday 20 Dec 2014 (Local Time) from SBSV Reporting Station
Scattered Clouds Scattered Clouds  
Wind Chill: 82°   Ceiling: Unl
Heat Index: 88°   Visibility: 6mi
Dew Point: 73°   Wind: 17mph
Humidity: 74%   Direction: 70°ENE
Pressure: 29.94"   Gusts: NA
Location:  11.61°S, 38.81°W
Report Text: SBSV 201500Z 07015KT 9999 SCT017 28/23 Q1014
Loading
Personal Weather Stations






























Interactive Weather Map New forecast layout! Learn more

10-Day Weather Forecast

Advertisements
Track Severe Weather on mobile